Evergreen, AL

3:03 PM CDT on July 10, 2014 (GMT -0500)
Middleton (KGZH) Elev 256 ft | 31.42 °N, 87.04 °W | Change Station

Current weather conditions updated 10 minutes ago

Mostly Cloudy
Mostly Cloudy
81 °F
Feels Like 85 °F
N
8
Wind Variable Wind from WNW
Gusts 20 mph

Today is forecast to be Cooler than yesterday. Thunderstorms.

Today
High -- | Low -- °F
--% Chance of Precip.
Yesterday
High -- | Low -- °F
Precip. -- in
5:50 AM 7:55 PM
Waxing Gibbous, 96% visible
Pressure 30.06 in
Visibility 10.0 miles
Clouds Few 2900 ft
Scattered Clouds 4800 ft
Mostly Cloudy 6500 ft
Heat Index 85 °F
Dew Point 71 °F
Humidity 72%
Rainfall 0.00 in
Snow Depth Not available.
UV 6 out of 12
Pollen 1.20 out of 12
Air Quality Not available.
Flu Activity Sporadic
METAR KGZH 101953Z AUTO 30007G17KT 270V330 10SM VCTS FEW029 SCT048 BKN065 27/22 A3007 RMK AO2 LTG DSNT NW-E SLP180 T02720217

More Conditions Fewer Conditions

Pressure 30.06 in
Visibility 10.0 miles
Clouds Few 2900 ft
Scattered Clouds 4800 ft
Mostly Cloudy 6500 ft
Heat Index 85 °F
Dew Point 71 °F
Humidity 72%
Rainfall 0.00 in
Snow Depth Not available.
UV 6 out of 12
Pollen 1.20 out of 12
Air Quality Not available.
Flu Activity Sporadic
METAR KGZH 101953Z AUTO 30007G17KT 270V330 10SM VCTS FEW029 SCT048 BKN065 27/22 A3007 RMK AO2 LTG DSNT NW-E SLP180 T02720217

More Conditions Fewer Conditions

10-Day Weather Forecast

Almanac

Astronomy

Jul. 10, 2014 Rise Set
Actual Time 5:50 AM CDT 7:55 PM CDT
Civil Twilight 5:23 AM CDT 8:22 PM CDT
Nautical Twilight 4:49 AM CDT 8:56 PM CDT
Astronomical Twilight 4:13 AM CDT 9:32 PM CDT
Moon 6:11 PM CDT 3:58 AM CDT
Length of Visible Light 14h 59m
Length of Day
14h 04m
Tomorrow will be 0m 48s shorter.
Waxing Gibbous, 96% of the Moon is Illuminated
Today
Waxing Gibbous
Jul 12
Full
Jul 18
Last Quarter
Jul 26
New
Aug 3
First Quarter

Today's Extremes

State Highs State Lows

Community

WunderPhotos

Upload Photos

1,732,250 photos uploaded!

Nearby

Snow Depth

Station Depth Elevation
No new snow has been reported.

Earthquake Activity

City Distance Mag. Time & Date
No recent earthquake activity has been reported nearby.
Minimum magnitude displayed is 2.5.

Coastal Water Temperatures

Place Temperature
No Stations Reporting

Nearby Weather Stations

Station Location Temp. Heat Index Dew Point Humidity Wind Precip. Elev Updated Type
Red Level, Red Level, AL 83.4 °F 90 °F 74 °F 74% South  at  0.0 mph 0.00 in / hr 345 ft 3:01 PM CDT Normal

Show More Stations Show Fewer Stations